sensor_id;sensor_type;location;lat;lon;timestamp;P1;durP1;ratioP1;P2;durP2;ratioP2
19149;SDS011;9707;49.158;8.632;2024-01-15T00:01:51;38.15;;;17.67;;
19149;SDS011;9707;49.158;8.632;2024-01-15T00:04:17;37.50;;;18.83;;
19149;SDS011;9707;49.158;8.632;2024-01-15T00:06:42;37.55;;;18.60;;
19149;SDS011;9707;49.158;8.632;2024-01-15T00:09:07;33.17;;;17.77;;
19149;SDS011;9707;49.158;8.632;2024-01-15T00:11:33;32.00;;;17.10;;
19149;SDS011;9707;49.158;8.632;2024-01-15T00:13:58;39.10;;;19.10;;
19149;SDS011;9707;49.158;8.632;2024-01-15T00:16:23;39.83;;;19.15;;
19149;SDS011;9707;49.158;8.632;2024-01-15T00:18:49;39.42;;;20.48;;
19149;SDS011;9707;49.158;8.632;2024-01-15T00:21:14;42.53;;;20.85;;
19149;SDS011;9707;49.158;8.632;2024-01-15T00:23:43;39.50;;;18.90;;
19149;SDS011;9707;49.158;8.632;2024-01-15T00:26:11;39.65;;;18.80;;
19149;SDS011;9707;49.158;8.632;2024-01-15T00:28:37;36.83;;;18.48;;
19149;SDS011;9707;49.158;8.632;2024-01-15T00:31:02;35.05;;;17.88;;
19149;SDS011;9707;49.158;8.632;2024-01-15T00:33:29;34.78;;;16.83;;
19149;SDS011;9707;49.158;8.632;2024-01-15T00:35:54;30.50;;;16.23;;
19149;SDS011;9707;49.158;8.632;2024-01-15T00:38:19;31.80;;;16.75;;
19149;SDS011;9707;49.158;8.632;2024-01-15T00:40:45;38.75;;;19.10;;
19149;SDS011;9707;49.158;8.632;2024-01-15T00:43:10;33.80;;;16.83;;
19149;SDS011;9707;49.158;8.632;2024-01-15T00:45:35;31.27;;;16.25;;
19149;SDS011;9707;49.158;8.632;2024-01-15T00:48:01;37.15;;;18.25;;
19149;SDS011;9707;49.158;8.632;2024-01-15T00:50:26;34.15;;;17.35;;
19149;SDS011;9707;49.158;8.632;2024-01-15T00:52:51;36.80;;;17.63;;
19149;SDS011;9707;49.158;8.632;2024-01-15T00:55:17;37.03;;;18.85;;
19149;SDS011;9707;49.158;8.632;2024-01-15T00:57:42;36.63;;;18.33;;
19149;SDS011;9707;49.158;8.632;2024-01-15T01:00:07;30.95;;;16.92;;
19149;SDS011;9707;49.158;8.632;2024-01-15T01:02:34;38.50;;;18.77;;
19149;SDS011;9707;49.158;8.632;2024-01-15T01:04:59;34.58;;;17.88;;
19149;SDS011;9707;49.158;8.632;2024-01-15T01:07:25;38.15;;;17.83;;
19149;SDS011;9707;49.158;8.632;2024-01-15T01:09:50;26.50;;;13.52;;
19149;SDS011;9707;49.158;8.632;2024-01-15T01:12:16;33.70;;;17.33;;
19149;SDS011;9707;49.158;8.632;2024-01-15T01:14:41;29.58;;;15.63;;
19149;SDS011;9707;49.158;8.632;2024-01-15T01:17:07;33.05;;;16.20;;
19149;SDS011;9707;49.158;8.632;2024-01-15T01:19:32;31.85;;;15.60;;
19149;SDS011;9707;49.158;8.632;2024-01-15T01:21:57;27.85;;;15.52;;
19149;SDS011;9707;49.158;8.632;2024-01-15T01:24:22;32.75;;;16.25;;
19149;SDS011;9707;49.158;8.632;2024-01-15T01:26:48;27.77;;;13.88;;
19149;SDS011;9707;49.158;8.632;2024-01-15T01:29:14;30.33;;;16.75;;
19149;SDS011;9707;49.158;8.632;2024-01-15T01:31:43;30.10;;;15.68;;
19149;SDS011;9707;49.158;8.632;2024-01-15T01:34:09;31.30;;;14.90;;
19149;SDS011;9707;49.158;8.632;2024-01-15T01:36:34;28.77;;;15.88;;
19149;SDS011;9707;49.158;8.632;2024-01-15T01:38:59;32.05;;;14.95;;
19149;SDS011;9707;49.158;8.632;2024-01-15T01:41:25;33.08;;;16.88;;
19149;SDS011;9707;49.158;8.632;2024-01-15T01:43:50;32.75;;;16.98;;
19149;SDS011;9707;49.158;8.632;2024-01-15T01:46:15;31.27;;;16.45;;
19149;SDS011;9707;49.158;8.632;2024-01-15T01:48:41;32.28;;;17.17;;
19149;SDS011;9707;49.158;8.632;2024-01-15T01:51:06;33.03;;;16.45;;
19149;SDS011;9707;49.158;8.632;2024-01-15T01:53:33;30.50;;;14.85;;
19149;SDS011;9707;49.158;8.632;2024-01-15T01:56:02;31.55;;;16.20;;
19149;SDS011;9707;49.158;8.632;2024-01-15T01:58:28;29.92;;;15.57;;
19149;SDS011;9707;49.158;8.632;2024-01-15T02:00:54;29.08;;;16.35;;
19149;SDS011;9707;49.158;8.632;2024-01-15T02:03:20;31.73;;;15.23;;
19149;SDS011;9707;49.158;8.632;2024-01-15T02:05:45;29.60;;;14.70;;
19149;SDS011;9707;49.158;8.632;2024-01-15T02:08:13;27.58;;;14.52;;
19149;SDS011;9707;49.158;8.632;2024-01-15T02:10:39;30.63;;;16.80;;
19149;SDS011;9707;49.158;8.632;2024-01-15T02:13:04;30.25;;;15.90;;
19149;SDS011;9707;49.158;8.632;2024-01-15T02:15:30;27.73;;;14.55;;
19149;SDS011;9707;49.158;8.632;2024-01-15T02:18:01;30.40;;;14.68;;
19149;SDS011;9707;49.158;8.632;2024-01-15T02:20:28;28.80;;;15.07;;
19149;SDS011;9707;49.158;8.632;2024-01-15T02:23:01;31.10;;;15.80;;
19149;SDS011;9707;49.158;8.632;2024-01-15T02:25:33;30.73;;;15.18;;
19149;SDS011;9707;49.158;8.632;2024-01-15T02:27:59;28.02;;;14.38;;
19149;SDS011;9707;49.158;8.632;2024-01-15T02:30:24;29.02;;;15.40;;
19149;SDS011;9707;49.158;8.632;2024-01-15T02:32:50;32.05;;;16.35;;
19149;SDS011;9707;49.158;8.632;2024-01-15T02:35:15;24.63;;;12.38;;
19149;SDS011;9707;49.158;8.632;2024-01-15T02:37:41;33.28;;;16.35;;
19149;SDS011;9707;49.158;8.632;2024-01-15T02:40:06;28.88;;;15.73;;
19149;SDS011;9707;49.158;8.632;2024-01-15T02:42:32;27.45;;;14.77;;
19149;SDS011;9707;49.158;8.632;2024-01-15T02:44:57;29.13;;;15.10;;
19149;SDS011;9707;49.158;8.632;2024-01-15T02:47:22;26.45;;;13.93;;
19149;SDS011;9707;49.158;8.632;2024-01-15T02:49:48;29.40;;;15.00;;
19149;SDS011;9707;49.158;8.632;2024-01-15T02:52:13;26.92;;;14.40;;
19149;SDS011;9707;49.158;8.632;2024-01-15T02:54:38;28.52;;;14.63;;
19149;SDS011;9707;49.158;8.632;2024-01-15T02:57:04;29.33;;;14.98;;
19149;SDS011;9707;49.158;8.632;2024-01-15T02:59:29;25.48;;;13.90;;
19149;SDS011;9707;49.158;8.632;2024-01-15T03:01:54;29.38;;;15.32;;
19149;SDS011;9707;49.158;8.632;2024-01-15T03:04:19;29.63;;;14.40;;
19149;SDS011;9707;49.158;8.632;2024-01-15T03:06:45;29.83;;;15.15;;
19149;SDS011;9707;49.158;8.632;2024-01-15T03:09:10;28.73;;;14.32;;
19149;SDS011;9707;49.158;8.632;2024-01-15T03:11:38;27.38;;;14.27;;
19149;SDS011;9707;49.158;8.632;2024-01-15T03:14:04;26.70;;;14.30;;
19149;SDS011;9707;49.158;8.632;2024-01-15T03:16:29;27.88;;;13.95;;
19149;SDS011;9707;49.158;8.632;2024-01-15T03:18:54;23.35;;;12.65;;
19149;SDS011;9707;49.158;8.632;2024-01-15T03:21:20;27.52;;;14.38;;
19149;SDS011;9707;49.158;8.632;2024-01-15T03:23:45;26.63;;;14.10;;
19149;SDS011;9707;49.158;8.632;2024-01-15T03:26:10;26.00;;;14.23;;
19149;SDS011;9707;49.158;8.632;2024-01-15T03:28:35;27.77;;;14.02;;
19149;SDS011;9707;49.158;8.632;2024-01-15T03:31:01;24.02;;;13.32;;
19149;SDS011;9707;49.158;8.632;2024-01-15T03:33:26;24.48;;;12.38;;
19149;SDS011;9707;49.158;8.632;2024-01-15T03:35:51;26.02;;;13.93;;
19149;SDS011;9707;49.158;8.632;2024-01-15T03:38:16;25.33;;;14.07;;
19149;SDS011;9707;49.158;8.632;2024-01-15T03:40:42;26.38;;;13.38;;
19149;SDS011;9707;49.158;8.632;2024-01-15T03:43:07;23.15;;;11.57;;
19149;SDS011;9707;49.158;8.632;2024-01-15T03:45:32;25.15;;;12.98;;
19149;SDS011;9707;49.158;8.632;2024-01-15T03:47:57;21.77;;;12.18;;
19149;SDS011;9707;49.158;8.632;2024-01-15T03:50:23;22.80;;;13.95;;
19149;SDS011;9707;49.158;8.632;2024-01-15T03:52:48;24.40;;;13.75;;
19149;SDS011;9707;49.158;8.632;2024-01-15T03:55:13;22.52;;;11.80;;
19149;SDS011;9707;49.158;8.632;2024-01-15T03:57:39;24.27;;;13.95;;
19149;SDS011;9707;49.158;8.632;2024-01-15T04:00:04;22.70;;;12.25;;
19149;SDS011;9707;49.158;8.632;2024-01-15T04:02:30;23.73;;;13.25;;
19149;SDS011;9707;49.158;8.632;2024-01-15T04:04:55;24.05;;;12.88;;
19149;SDS011;9707;49.158;8.632;2024-01-15T04:07:20;25.25;;;13.10;;
19149;SDS011;9707;49.158;8.632;2024-01-15T04:09:46;24.73;;;12.57;;
19149;SDS011;9707;49.158;8.632;2024-01-15T04:12:11;24.38;;;13.02;;
19149;SDS011;9707;49.158;8.632;2024-01-15T04:14:36;26.60;;;13.55;;
19149;SDS011;9707;49.158;8.632;2024-01-15T04:17:01;22.35;;;11.30;;
19149;SDS011;9707;49.158;8.632;2024-01-15T04:19:26;23.98;;;13.07;;
19149;SDS011;9707;49.158;8.632;2024-01-15T04:21:52;23.65;;;12.85;;
19149;SDS011;9707;49.158;8.632;2024-01-15T04:24:17;21.77;;;12.15;;
19149;SDS011;9707;49.158;8.632;2024-01-15T04:26:43;26.95;;;13.63;;
19149;SDS011;9707;49.158;8.632;2024-01-15T04:29:08;22.58;;;11.80;;
19149;SDS011;9707;49.158;8.632;2024-01-15T04:31:33;22.77;;;12.85;;
19149;SDS011;9707;49.158;8.632;2024-01-15T04:33:59;22.95;;;12.50;;
19149;SDS011;9707;49.158;8.632;2024-01-15T04:36:24;22.67;;;11.60;;
19149;SDS011;9707;49.158;8.632;2024-01-15T04:38:49;24.98;;;12.50;;
19149;SDS011;9707;49.158;8.632;2024-01-15T04:41:14;20.60;;;11.93;;
19149;SDS011;9707;49.158;8.632;2024-01-15T04:43:41;22.70;;;12.77;;
19149;SDS011;9707;49.158;8.632;2024-01-15T04:46:06;25.13;;;12.13;;
19149;SDS011;9707;49.158;8.632;2024-01-15T04:48:32;22.13;;;11.82;;
19149;SDS011;9707;49.158;8.632;2024-01-15T04:50:58;26.42;;;12.77;;
19149;SDS011;9707;49.158;8.632;2024-01-15T04:53:23;19.88;;;11.57;;
19149;SDS011;9707;49.158;8.632;2024-01-15T04:55:48;24.35;;;12.23;;
19149;SDS011;9707;49.158;8.632;2024-01-15T04:58:13;23.02;;;12.82;;
19149;SDS011;9707;49.158;8.632;2024-01-15T05:00:39;23.20;;;12.55;;
19149;SDS011;9707;49.158;8.632;2024-01-15T05:03:04;19.80;;;9.70;;
19149;SDS011;9707;49.158;8.632;2024-01-15T05:05:29;22.35;;;11.73;;
19149;SDS011;9707;49.158;8.632;2024-01-15T05:07:55;20.98;;;11.88;;
19149;SDS011;9707;49.158;8.632;2024-01-15T05:10:20;22.23;;;11.55;;
19149;SDS011;9707;49.158;8.632;2024-01-15T05:12:45;24.00;;;11.43;;
19149;SDS011;9707;49.158;8.632;2024-01-15T05:15:13;19.85;;;11.32;;
19149;SDS011;9707;49.158;8.632;2024-01-15T05:17:39;23.75;;;12.45;;
19149;SDS011;9707;49.158;8.632;2024-01-15T05:20:04;21.42;;;12.20;;
19149;SDS011;9707;49.158;8.632;2024-01-15T05:22:30;21.88;;;11.93;;
19149;SDS011;9707;49.158;8.632;2024-01-15T05:24:55;24.50;;;12.85;;
19149;SDS011;9707;49.158;8.632;2024-01-15T05:27:20;25.33;;;12.82;;
19149;SDS011;9707;49.158;8.632;2024-01-15T05:29:45;23.83;;;12.95;;
19149;SDS011;9707;49.158;8.632;2024-01-15T05:32:11;23.27;;;12.88;;
19149;SDS011;9707;49.158;8.632;2024-01-15T05:34:36;25.30;;;13.07;;
19149;SDS011;9707;49.158;8.632;2024-01-15T05:37:01;20.70;;;11.95;;
19149;SDS011;9707;49.158;8.632;2024-01-15T05:39:26;23.65;;;12.13;;
19149;SDS011;9707;49.158;8.632;2024-01-15T05:41:52;26.00;;;13.45;;
19149;SDS011;9707;49.158;8.632;2024-01-15T05:44:17;25.33;;;13.32;;
19149;SDS011;9707;49.158;8.632;2024-01-15T05:46:42;24.27;;;12.60;;
19149;SDS011;9707;49.158;8.632;2024-01-15T05:49:08;25.10;;;13.18;;
19149;SDS011;9707;49.158;8.632;2024-01-15T05:51:33;23.35;;;12.93;;
19149;SDS011;9707;49.158;8.632;2024-01-15T05:53:58;20.73;;;11.38;;
19149;SDS011;9707;49.158;8.632;2024-01-15T05:56:23;22.20;;;12.50;;
19149;SDS011;9707;49.158;8.632;2024-01-15T05:58:49;22.85;;;11.63;;
19149;SDS011;9707;49.158;8.632;2024-01-15T06:01:14;23.67;;;13.40;;
19149;SDS011;9707;49.158;8.632;2024-01-15T06:03:40;21.85;;;12.88;;
19149;SDS011;9707;49.158;8.632;2024-01-15T06:06:05;22.10;;;11.85;;
19149;SDS011;9707;49.158;8.632;2024-01-15T06:08:30;16.23;;;9.43;;
19149;SDS011;9707;49.158;8.632;2024-01-15T06:10:56;22.00;;;12.25;;
19149;SDS011;9707;49.158;8.632;2024-01-15T06:13:21;24.20;;;11.85;;
19149;SDS011;9707;49.158;8.632;2024-01-15T06:15:46;21.77;;;12.20;;
19149;SDS011;9707;49.158;8.632;2024-01-15T06:18:12;22.13;;;11.90;;
19149;SDS011;9707;49.158;8.632;2024-01-15T06:20:37;21.42;;;11.75;;
19149;SDS011;9707;49.158;8.632;2024-01-15T06:23:03;21.17;;;11.85;;
19149;SDS011;9707;49.158;8.632;2024-01-15T06:25:28;18.85;;;10.50;;
19149;SDS011;9707;49.158;8.632;2024-01-15T06:27:54;17.80;;;9.45;;
19149;SDS011;9707;49.158;8.632;2024-01-15T06:30:19;18.40;;;10.85;;
19149;SDS011;9707;49.158;8.632;2024-01-15T06:32:44;18.10;;;9.38;;
19149;SDS011;9707;49.158;8.632;2024-01-15T06:35:09;20.42;;;11.07;;
19149;SDS011;9707;49.158;8.632;2024-01-15T06:37:36;18.65;;;11.60;;
19149;SDS011;9707;49.158;8.632;2024-01-15T06:40:02;20.25;;;11.60;;
19149;SDS011;9707;49.158;8.632;2024-01-15T06:42:28;20.65;;;11.43;;
19149;SDS011;9707;49.158;8.632;2024-01-15T06:44:53;20.13;;;11.02;;
19149;SDS011;9707;49.158;8.632;2024-01-15T06:47:18;22.77;;;11.45;;
19149;SDS011;9707;49.158;8.632;2024-01-15T06:49:43;20.15;;;11.50;;
19149;SDS011;9707;49.158;8.632;2024-01-15T06:52:09;23.98;;;12.63;;
19149;SDS011;9707;49.158;8.632;2024-01-15T06:54:34;23.85;;;12.70;;
19149;SDS011;9707;49.158;8.632;2024-01-15T06:57:00;22.40;;;12.63;;
19149;SDS011;9707;49.158;8.632;2024-01-15T06:59:25;23.27;;;13.18;;
19149;SDS011;9707;49.158;8.632;2024-01-15T07:01:50;23.30;;;13.00;;
19149;SDS011;9707;49.158;8.632;2024-01-15T07:04:15;23.85;;;12.20;;
19149;SDS011;9707;49.158;8.632;2024-01-15T07:06:41;22.55;;;11.35;;
19149;SDS011;9707;49.158;8.632;2024-01-15T07:09:06;19.55;;;9.85;;
19149;SDS011;9707;49.158;8.632;2024-01-15T07:11:32;23.80;;;12.73;;
19149;SDS011;9707;49.158;8.632;2024-01-15T07:13:57;25.80;;;14.13;;
19149;SDS011;9707;49.158;8.632;2024-01-15T07:16:23;23.85;;;14.15;;
19149;SDS011;9707;49.158;8.632;2024-01-15T07:18:48;23.17;;;13.50;;
19149;SDS011;9707;49.158;8.632;2024-01-15T07:21:13;20.85;;;11.05;;
19149;SDS011;9707;49.158;8.632;2024-01-15T07:23:39;21.02;;;11.00;;
19149;SDS011;9707;49.158;8.632;2024-01-15T07:26:04;22.13;;;12.10;;
19149;SDS011;9707;49.158;8.632;2024-01-15T07:28:30;22.98;;;12.00;;
19149;SDS011;9707;49.158;8.632;2024-01-15T07:30:55;23.02;;;12.07;;
19149;SDS011;9707;49.158;8.632;2024-01-15T07:33:20;22.17;;;11.50;;
19149;SDS011;9707;49.158;8.632;2024-01-15T07:35:46;22.58;;;12.15;;
19149;SDS011;9707;49.158;8.632;2024-01-15T07:38:11;20.88;;;11.63;;
19149;SDS011;9707;49.158;8.632;2024-01-15T07:40:37;18.90;;;11.10;;
19149;SDS011;9707;49.158;8.632;2024-01-15T07:43:02;20.23;;;10.82;;
19149;SDS011;9707;49.158;8.632;2024-01-15T07:45:27;15.25;;;8.60;;
19149;SDS011;9707;49.158;8.632;2024-01-15T07:47:53;17.23;;;9.82;;
19149;SDS011;9707;49.158;8.632;2024-01-15T07:50:18;15.30;;;8.40;;
19149;SDS011;9707;49.158;8.632;2024-01-15T07:52:43;15.30;;;9.27;;
19149;SDS011;9707;49.158;8.632;2024-01-15T07:55:09;16.85;;;9.90;;
19149;SDS011;9707;49.158;8.632;2024-01-15T07:57:34;17.35;;;9.80;;
19149;SDS011;9707;49.158;8.632;2024-01-15T08:00:00;15.23;;;9.48;;
19149;SDS011;9707;49.158;8.632;2024-01-15T08:02:26;14.43;;;8.45;;
19149;SDS011;9707;49.158;8.632;2024-01-15T08:04:52;17.98;;;10.23;;
19149;SDS011;9707;49.158;8.632;2024-01-15T08:07:17;17.02;;;9.95;;
19149;SDS011;9707;49.158;8.632;2024-01-15T08:09:42;17.65;;;9.50;;
19149;SDS011;9707;49.158;8.632;2024-01-15T08:12:08;18.92;;;10.05;;
19149;SDS011;9707;49.158;8.632;2024-01-15T08:14:35;19.73;;;10.18;;
19149;SDS011;9707;49.158;8.632;2024-01-15T08:17:00;16.25;;;9.77;;
19149;SDS011;9707;49.158;8.632;2024-01-15T08:19:26;17.88;;;10.27;;
19149;SDS011;9707;49.158;8.632;2024-01-15T08:21:51;18.83;;;9.95;;
19149;SDS011;9707;49.158;8.632;2024-01-15T08:24:17;18.55;;;10.10;;
19149;SDS011;9707;49.158;8.632;2024-01-15T08:26:42;21.25;;;11.00;;
19149;SDS011;9707;49.158;8.632;2024-01-15T08:29:08;17.52;;;9.77;;
19149;SDS011;9707;49.158;8.632;2024-01-15T08:31:33;17.60;;;10.45;;
19149;SDS011;9707;49.158;8.632;2024-01-15T08:33:58;17.35;;;10.43;;
19149;SDS011;9707;49.158;8.632;2024-01-15T08:36:24;18.23;;;11.43;;
19149;SDS011;9707;49.158;8.632;2024-01-15T08:38:50;17.27;;;9.38;;
19149;SDS011;9707;49.158;8.632;2024-01-15T08:41:15;17.33;;;10.50;;
19149;SDS011;9707;49.158;8.632;2024-01-15T08:43:40;19.65;;;10.23;;
19149;SDS011;9707;49.158;8.632;2024-01-15T08:46:05;17.23;;;10.05;;
19149;SDS011;9707;49.158;8.632;2024-01-15T08:48:31;17.35;;;10.35;;
19149;SDS011;9707;49.158;8.632;2024-01-15T08:50:56;20.17;;;11.02;;
19149;SDS011;9707;49.158;8.632;2024-01-15T08:53:22;20.10;;;10.77;;
19149;SDS011;9707;49.158;8.632;2024-01-15T08:55:47;21.83;;;10.73;;
19149;SDS011;9707;49.158;8.632;2024-01-15T08:58:13;19.30;;;11.65;;
19149;SDS011;9707;49.158;8.632;2024-01-15T09:00:38;21.25;;;11.95;;
19149;SDS011;9707;49.158;8.632;2024-01-15T09:03:04;21.40;;;11.63;;
19149;SDS011;9707;49.158;8.632;2024-01-15T09:05:29;19.27;;;10.35;;
19149;SDS011;9707;49.158;8.632;2024-01-15T09:07:55;20.38;;;10.63;;
19149;SDS011;9707;49.158;8.632;2024-01-15T09:10:20;21.73;;;12.02;;
19149;SDS011;9707;49.158;8.632;2024-01-15T09:12:45;18.45;;;10.57;;
19149;SDS011;9707;49.158;8.632;2024-01-15T09:15:11;20.27;;;11.68;;
19149;SDS011;9707;49.158;8.632;2024-01-15T09:17:36;19.30;;;11.40;;
19149;SDS011;9707;49.158;8.632;2024-01-15T09:20:01;19.75;;;10.65;;
19149;SDS011;9707;49.158;8.632;2024-01-15T09:22:29;17.35;;;10.48;;
19149;SDS011;9707;49.158;8.632;2024-01-15T09:24:54;19.65;;;11.15;;
19149;SDS011;9707;49.158;8.632;2024-01-15T09:27:19;18.45;;;11.15;;
19149;SDS011;9707;49.158;8.632;2024-01-15T09:29:45;18.55;;;10.98;;
19149;SDS011;9707;49.158;8.632;2024-01-15T09:32:11;19.08;;;10.48;;
19149;SDS011;9707;49.158;8.632;2024-01-15T09:34:37;18.63;;;10.82;;
19149;SDS011;9707;49.158;8.632;2024-01-15T09:37:03;19.88;;;10.88;;
19149;SDS011;9707;49.158;8.632;2024-01-15T09:39:29;20.08;;;10.93;;
19149;SDS011;9707;49.158;8.632;2024-01-15T09:41:55;18.13;;;10.32;;
19149;SDS011;9707;49.158;8.632;2024-01-15T09:44:21;18.70;;;10.20;;
19149;SDS011;9707;49.158;8.632;2024-01-15T09:46:47;21.45;;;11.57;;
19149;SDS011;9707;49.158;8.632;2024-01-15T09:49:15;22.70;;;11.70;;
19149;SDS011;9707;49.158;8.632;2024-01-15T09:51:41;17.55;;;10.02;;
19149;SDS011;9707;49.158;8.632;2024-01-15T09:54:07;21.13;;;11.27;;
19149;SDS011;9707;49.158;8.632;2024-01-15T09:56:33;19.35;;;10.73;;
19149;SDS011;9707;49.158;8.632;2024-01-15T09:58:59;19.92;;;10.98;;
19149;SDS011;9707;49.158;8.632;2024-01-15T10:01:25;20.23;;;10.70;;
19149;SDS011;9707;49.158;8.632;2024-01-15T10:03:51;21.33;;;11.80;;
19149;SDS011;9707;49.158;8.632;2024-01-15T10:06:17;19.83;;;11.23;;
19149;SDS011;9707;49.158;8.632;2024-01-15T10:08:43;20.17;;;11.18;;
19149;SDS011;9707;49.158;8.632;2024-01-15T10:11:13;21.65;;;11.60;;
19149;SDS011;9707;49.158;8.632;2024-01-15T10:13:39;18.95;;;10.80;;
19149;SDS011;9707;49.158;8.632;2024-01-15T10:16:04;20.27;;;10.73;;
19149;SDS011;9707;49.158;8.632;2024-01-15T10:18:30;20.38;;;11.32;;
19149;SDS011;9707;49.158;8.632;2024-01-15T10:20:56;19.63;;;12.30;;
19149;SDS011;9707;49.158;8.632;2024-01-15T10:23:22;18.63;;;10.25;;
19149;SDS011;9707;49.158;8.632;2024-01-15T10:25:48;18.55;;;10.35;;
19149;SDS011;9707;49.158;8.632;2024-01-15T10:28:13;19.50;;;10.95;;
19149;SDS011;9707;49.158;8.632;2024-01-15T10:30:39;19.25;;;10.77;;
19149;SDS011;9707;49.158;8.632;2024-01-15T10:33:04;20.67;;;10.82;;
19149;SDS011;9707;49.158;8.632;2024-01-15T10:35:30;17.30;;;9.80;;
19149;SDS011;9707;49.158;8.632;2024-01-15T10:37:58;20.48;;;11.65;;
19149;SDS011;9707;49.158;8.632;2024-01-15T10:40:27;22.98;;;11.20;;
19149;SDS011;9707;49.158;8.632;2024-01-15T10:42:53;20.52;;;11.70;;
19149;SDS011;9707;49.158;8.632;2024-01-15T10:45:19;20.40;;;11.88;;
19149;SDS011;9707;49.158;8.632;2024-01-15T10:47:44;18.33;;;11.07;;
19149;SDS011;9707;49.158;8.632;2024-01-15T10:50:10;19.55;;;10.43;;
19149;SDS011;9707;49.158;8.632;2024-01-15T10:52:39;18.00;;;10.57;;
19149;SDS011;9707;49.158;8.632;2024-01-15T10:55:09;21.15;;;11.10;;
19149;SDS011;9707;49.158;8.632;2024-01-15T10:57:38;17.25;;;9.73;;
19149;SDS011;9707;49.158;8.632;2024-01-15T11:00:06;22.70;;;12.20;;
19149;SDS011;9707;49.158;8.632;2024-01-15T11:02:35;24.33;;;11.88;;
19149;SDS011;9707;49.158;8.632;2024-01-15T11:05:02;21.00;;;11.65;;
19149;SDS011;9707;49.158;8.632;2024-01-15T11:07:27;24.98;;;11.65;;
19149;SDS011;9707;49.158;8.632;2024-01-15T11:09:55;25.95;;;11.93;;
19149;SDS011;9707;49.158;8.632;2024-01-15T11:12:20;22.20;;;11.93;;
19149;SDS011;9707;49.158;8.632;2024-01-15T11:14:46;22.58;;;13.02;;
19149;SDS011;9707;49.158;8.632;2024-01-15T11:17:13;19.50;;;10.95;;
19149;SDS011;9707;49.158;8.632;2024-01-15T11:22:11;22.52;;;12.48;;
19149;SDS011;9707;49.158;8.632;2024-01-15T11:24:55;23.05;;;11.82;;
19149;SDS011;9707;49.158;8.632;2024-01-15T11:30:07;20.30;;;12.32;;
19149;SDS011;9707;49.158;8.632;2024-01-15T11:32:34;24.30;;;12.02;;
19149;SDS011;9707;49.158;8.632;2024-01-15T11:35:01;22.65;;;11.77;;
19149;SDS011;9707;49.158;8.632;2024-01-15T11:37:28;24.20;;;12.18;;
19149;SDS011;9707;49.158;8.632;2024-01-15T11:39:55;20.42;;;11.85;;
19149;SDS011;9707;49.158;8.632;2024-01-15T11:42:25;22.63;;;12.32;;
19149;SDS011;9707;49.158;8.632;2024-01-15T11:44:52;20.42;;;11.73;;
19149;SDS011;9707;49.158;8.632;2024-01-15T11:47:23;18.98;;;10.93;;
19149;SDS011;9707;49.158;8.632;2024-01-15T11:50:15;19.35;;;10.18;;
19149;SDS011;9707;49.158;8.632;2024-01-15T11:52:40;19.52;;;11.15;;
19149;SDS011;9707;49.158;8.632;2024-01-15T11:55:26;21.35;;;11.43;;
19149;SDS011;9707;49.158;8.632;2024-01-15T11:57:54;19.90;;;11.07;;
19149;SDS011;9707;49.158;8.632;2024-01-15T12:00:20;16.63;;;9.38;;
19149;SDS011;9707;49.158;8.632;2024-01-15T12:02:46;16.92;;;9.73;;
19149;SDS011;9707;49.158;8.632;2024-01-15T12:05:14;17.00;;;9.52;;
19149;SDS011;9707;49.158;8.632;2024-01-15T12:07:41;16.13;;;9.30;;
19149;SDS011;9707;49.158;8.632;2024-01-15T12:15:24;15.68;;;9.40;;
19149;SDS011;9707;49.158;8.632;2024-01-15T12:17:51;17.13;;;8.60;;
19149;SDS011;9707;49.158;8.632;2024-01-15T12:20:17;15.68;;;9.07;;
19149;SDS011;9707;49.158;8.632;2024-01-15T12:22:43;17.23;;;9.57;;
19149;SDS011;9707;49.158;8.632;2024-01-15T12:25:08;18.08;;;9.50;;
19149;SDS011;9707;49.158;8.632;2024-01-15T12:27:34;16.95;;;9.40;;
19149;SDS011;9707;49.158;8.632;2024-01-15T12:29:59;16.15;;;8.75;;
19149;SDS011;9707;49.158;8.632;2024-01-15T12:32:25;15.40;;;8.30;;
19149;SDS011;9707;49.158;8.632;2024-01-15T12:34:50;17.13;;;9.63;;
19149;SDS011;9707;49.158;8.632;2024-01-15T12:37:18;16.10;;;9.30;;
19149;SDS011;9707;49.158;8.632;2024-01-15T12:39:44;17.55;;;8.90;;
19149;SDS011;9707;49.158;8.632;2024-01-15T12:42:10;13.82;;;8.75;;
19149;SDS011;9707;49.158;8.632;2024-01-15T12:44:36;15.60;;;9.60;;
19149;SDS011;9707;49.158;8.632;2024-01-15T12:47:04;13.30;;;8.65;;
19149;SDS011;9707;49.158;8.632;2024-01-15T12:49:30;15.07;;;8.35;;
19149;SDS011;9707;49.158;8.632;2024-01-15T12:51:59;15.63;;;7.40;;
19149;SDS011;9707;49.158;8.632;2024-01-15T12:54:25;15.57;;;8.98;;
19149;SDS011;9707;49.158;8.632;2024-01-15T12:56:50;17.33;;;9.63;;
19149;SDS011;9707;49.158;8.632;2024-01-15T12:59:16;13.15;;;7.78;;
19149;SDS011;9707;49.158;8.632;2024-01-15T13:01:42;14.80;;;9.25;;
19149;SDS011;9707;49.158;8.632;2024-01-15T13:04:08;18.90;;;9.00;;
19149;SDS011;9707;49.158;8.632;2024-01-15T13:06:34;12.40;;;8.32;;
19149;SDS011;9707;49.158;8.632;2024-01-15T13:09:05;13.52;;;8.50;;
19149;SDS011;9707;49.158;8.632;2024-01-15T13:11:31;14.00;;;8.00;;
19149;SDS011;9707;49.158;8.632;2024-01-15T13:13:56;15.45;;;8.63;;
19149;SDS011;9707;49.158;8.632;2024-01-15T13:16:22;14.35;;;8.95;;
19149;SDS011;9707;49.158;8.632;2024-01-15T13:18:47;13.32;;;7.55;;
19149;SDS011;9707;49.158;8.632;2024-01-15T13:21:14;12.27;;;7.53;;
19149;SDS011;9707;49.158;8.632;2024-01-15T13:23:40;13.00;;;8.02;;
19149;SDS011;9707;49.158;8.632;2024-01-15T13:26:05;16.17;;;7.80;;
19149;SDS011;9707;49.158;8.632;2024-01-15T13:28:30;13.38;;;7.72;;
19149;SDS011;9707;49.158;8.632;2024-01-15T13:30:55;13.93;;;8.30;;
19149;SDS011;9707;49.158;8.632;2024-01-15T13:33:21;13.57;;;7.38;;
19149;SDS011;9707;49.158;8.632;2024-01-15T13:35:46;11.10;;;6.47;;
19149;SDS011;9707;49.158;8.632;2024-01-15T13:38:14;9.45;;;6.13;;
19149;SDS011;9707;49.158;8.632;2024-01-15T13:40:40;9.88;;;6.20;;
19149;SDS011;9707;49.158;8.632;2024-01-15T13:43:05;8.10;;;6.00;;
19149;SDS011;9707;49.158;8.632;2024-01-15T13:45:33;8.68;;;5.68;;
19149;SDS011;9707;49.158;8.632;2024-01-15T13:47:59;7.90;;;5.35;;
19149;SDS011;9707;49.158;8.632;2024-01-15T13:50:24;8.10;;;5.40;;
19149;SDS011;9707;49.158;8.632;2024-01-15T13:52:49;8.32;;;5.82;;
19149;SDS011;9707;49.158;8.632;2024-01-15T13:55:15;8.20;;;5.65;;
19149;SDS011;9707;49.158;8.632;2024-01-15T13:57:40;9.25;;;5.60;;
19149;SDS011;9707;49.158;8.632;2024-01-15T14:00:05;12.10;;;6.53;;
19149;SDS011;9707;49.158;8.632;2024-01-15T14:02:36;7.28;;;5.10;;
19149;SDS011;9707;49.158;8.632;2024-01-15T14:05:01;10.63;;;5.50;;
19149;SDS011;9707;49.158;8.632;2024-01-15T14:07:27;10.32;;;6.10;;
19149;SDS011;9707;49.158;8.632;2024-01-15T14:09:52;8.30;;;5.20;;
19149;SDS011;9707;49.158;8.632;2024-01-15T14:12:17;9.27;;;5.45;;
19149;SDS011;9707;49.158;8.632;2024-01-15T14:14:42;8.98;;;6.05;;
19149;SDS011;9707;49.158;8.632;2024-01-15T14:17:08;9.65;;;5.65;;
19149;SDS011;9707;49.158;8.632;2024-01-15T14:19:33;8.63;;;5.88;;
19149;SDS011;9707;49.158;8.632;2024-01-15T14:21:58;9.73;;;5.90;;
19149;SDS011;9707;49.158;8.632;2024-01-15T14:24:24;9.82;;;5.68;;
19149;SDS011;9707;49.158;8.632;2024-01-15T14:26:49;8.75;;;5.75;;
19149;SDS011;9707;49.158;8.632;2024-01-15T14:29:14;9.18;;;5.95;;
19149;SDS011;9707;49.158;8.632;2024-01-15T14:31:40;7.72;;;5.20;;
19149;SDS011;9707;49.158;8.632;2024-01-15T14:34:05;9.40;;;5.30;;
19149;SDS011;9707;49.158;8.632;2024-01-15T14:36:32;8.27;;;5.00;;
19149;SDS011;9707;49.158;8.632;2024-01-15T14:38:57;8.38;;;5.30;;
19149;SDS011;9707;49.158;8.632;2024-01-15T14:41:23;8.38;;;5.30;;